Toledo, OH

1:41 AM EDT on April 21, 2015 (GMT -0400)
OHDOT | | Change Station
CLOSE
Current Station
Personal Weather Station
Location: Toledo, OH
Elevation: 582 ft
Nearby Weather Stations

Elev 582 ft 41.66 °N, 83.51 °W | Updated 31 minutes ago

Overcast
Overcast
47 °F
Feels Like 39 °F
N
21
Wind Variable Wind from SW
Gusts 32.0 mph

Today
High -- | Low -- °F
--% Chance of Precip.
Yesterday
High -- | Low -- °F
Precip. -- in
6:45 AM 8:21 PM
Waxing Crescent, 8% visible
Pressure 29.64 in
Visibility 10.0 miles
Clouds Few 3900 ft
Few 4700 ft
Overcast 7000 ft
Windchill 39 °F
Dew Point 31 °F
Humidity 53%
Rainfall in
Snow Depth Not available.
UV 0 out of 12
Pollen 7.00 out of 12
Air Quality Not available.
Flu Activity Regional
METAR KTDZ 210453Z AUTO 26015G23KT 10SM FEW039 FEW047 OVC070 08/M01 A2964 RMK AO2 PK WND 26033/0442 SLP035 T00831011 401670083 TSNO

More Conditions Fewer Conditions

Pressure 29.64 in
Visibility 10.0 miles
Clouds Few 3900 ft
Few 4700 ft
Overcast 7000 ft
Windchill 39 °F
Dew Point 31 °F
Humidity 53%
Rainfall in
Snow Depth Not available.
UV 0 out of 12
Pollen 7.00 out of 12
Air Quality Not available.
Flu Activity Regional
METAR KTDZ 210453Z AUTO 26015G23KT 10SM FEW039 FEW047 OVC070 08/M01 A2964 RMK AO2 PK WND 26033/0442 SLP035 T00831011 401670083 TSNO

More Conditions Fewer Conditions

10-Day Weather Forecast

Almanac

Astronomy

Apr. 21, 2015 Rise Set
Actual Time
Civil Twilight
Nautical Twilight
Astronomical Twilight
Moon
Length of Visible Light
Length of Day
Tomorrow will be .
, % of the Moon is Illuminated

Today's Extremes

State Highs State Lows

Community

WunderPhotos

Upload Photos

1,815,316 photos uploaded!

WunderBlogs® & News

Nearby

Air Quality

  Air Quality AQ Index Pollutant
Not available.

Snow Depth

Station Depth Elevation

Earthquake Activity

City Distance Mag. Time & Date
Minimum magnitude displayed is 2.5.

Coastal Water Temperatures

Place Temperature

Stations

Nearby Weather Stations

Station Location Temp. Windchill Dew Point Humidity Wind Precip. Elev Updated Type